BRU weather

Brussels Airport
Brussels, Brussels-Capital Region, Belgium

Public forecast

Using degrees Celsius for public forecast. Weather courtesy of forecast.io.

METAR (pilot weather report)

Retrieved 2018/12/19 14:20 UTC (33 minutes ago):

EBBR 191420Z 21009KT 9999 FEW022 SCT040 09/06 Q1010 NOSIG

TAF (pilot weather forecast)

Retrieved 2018/12/19 12:27 UTC (2 hours ago):

TAF TAF EBBR 191120Z 1912/2018 19010KT 9999 SCT018 PROB40 TEMPO 1912/1915 20015G26KT 4500 SHRA BKN013CB PROB40 TEMPO 2001/2018 20015G28KT 4500 SHRA BKN012CB